Time;durP1;ratioP1;P1;durP2;ratioP2;P2;SDS_P1;SDS_P2;PMS_P1;PMS_P2;Temp;Humidity;BMP_temperature;BMP_pressure;BME280_temperature;BME280_humidity;BME280_pressure;Samples;Min_cycle;Max_cycle;Signal;HPM_P1;HPM_P2
2023/02/14 00:00:08;;;;;;;35.37;19.53;;;;;;;3.54;79.77;96256.91;4997626;28;20434;-79
2023/02/14 00:02:35;;;;;;;32.07;17.93;;;;;;;3.57;80.26;96268.94;5032674;28;20453;-79
2023/02/14 00:05:01;;;;;;;28.83;18.07;;;;;;;3.53;80.10;96265.59;4997173;28;20458;-79
2023/02/14 00:07:28;;;;;;;33.23;20.40;;;;;;;3.48;80.23;96264.94;5032662;28;20443;-78
2023/02/14 00:09:55;;;;;;;32.50;18.00;;;;;;;3.45;80.82;96265.00;5032897;28;20461;-78
2023/02/14 00:12:21;;;;;;;38.90;21.30;;;;;;;3.51;80.26;96251.84;5032206;28;20811;-79
2023/02/14 00:17:34;;;;;;;36.07;19.53;;;;;;;3.45;80.72;96257.22;4989190;28;20485;-78
2023/02/14 00:20:00;;;;;;;36.10;20.17;;;;;;;3.46;80.92;96258.91;5032239;28;20991;-79
2023/02/14 00:22:27;;;;;;;41.70;23.27;;;;;;;3.47;79.88;96260.63;4997533;28;20476;-79
2023/02/14 00:24:54;;;;;;;35.00;19.23;;;;;;;3.46;80.05;96265.84;4981144;28;20864;-78
2023/02/14 00:27:21;;;;;;;61.60;29.40;;;;;;;3.38;78.35;96261.78;4993696;28;20471;-79
2023/02/14 00:29:47;;;;;;;52.90;30.67;;;;;;;3.18;78.57;96265.94;5012578;28;21014;-79
2023/02/14 00:32:14;;;;;;;58.53;29.20;;;;;;;2.92;78.79;96257.31;5012908;28;20471;-80
2023/02/14 00:34:42;;;;;;;53.03;29.33;;;;;;;2.72;80.37;96259.72;5012281;28;20446;-79
2023/02/14 00:37:09;;;;;;;34.60;20.50;;;;;;;2.78;82.47;96255.16;5012407;28;20482;-80
2023/02/14 00:39:36;;;;;;;34.53;19.37;;;;;;;2.89;83.33;96254.84;5012571;28;20521;-78
2023/02/14 00:42:03;;;;;;;29.27;19.27;;;;;;;2.94;82.98;96255.53;5012478;28;20470;-79
2023/02/14 00:44:29;;;;;;;27.80;18.40;;;;;;;3.02;83.01;96250.06;5012235;28;20443;-79
2023/02/14 00:46:56;;;;;;;31.03;18.03;;;;;;;3.08;83.62;96240.34;5012032;28;20450;-78
2023/02/14 00:49:23;;;;;;;27.10;18.40;;;;;;;3.11;83.35;96245.41;5012345;28;20442;-78
2023/02/14 00:51:51;;;;;;;31.30;19.00;;;;;;;3.17;83.16;96241.75;5012320;28;20443;-78
2023/02/14 00:54:18;;;;;;;31.27;17.87;;;;;;;3.20;82.47;96241.69;5012156;28;20455;-79
2023/02/14 00:56:44;;;;;;;24.60;16.13;;;;;;;3.21;82.72;96234.75;5012429;28;20482;-78
2023/02/14 00:59:11;;;;;;;31.77;18.47;;;;;;;3.23;82.09;96243.31;5012195;28;20454;-78
2023/02/14 01:01:38;;;;;;;30.87;19.63;;;;;;;3.25;82.86;96226.81;4961472;28;20455;-78
2023/02/14 01:04:06;;;;;;;35.20;19.30;;;;;;;3.28;82.66;96223.25;5012119;28;20513;-78
2023/02/14 01:06:33;;;;;;;26.43;19.23;;;;;;;3.34;82.04;96221.28;5012074;28;20454;-79
2023/02/14 01:09:01;;;;;;;29.90;18.43;;;;;;;3.34;81.19;96217.84;5011973;28;20459;-79
2023/02/14 01:11:28;;;;;;;27.80;18.90;;;;;;;3.31;81.89;96217.97;5012126;28;20455;-79
2023/02/14 01:13:56;;;;;;;33.23;20.63;;;;;;;3.38;80.80;96227.22;5012103;28;20489;-79
2023/02/14 01:16:26;;;;;;;25.13;17.20;;;;;;;3.43;81.23;96233.06;5014309;28;20893;-79
2023/02/14 01:18:53;;;;;;;32.67;20.40;;;;;;;3.40;80.91;96228.00;5016296;28;20500;-79
2023/02/14 01:21:23;;;;;;;33.77;20.30;;;;;;;3.37;81.11;96222.94;5016027;28;20439;-79
2023/02/14 01:23:51;;;;;;;27.30;17.87;;;;;;;3.34;81.36;96233.41;5015902;28;20455;-78
2023/02/14 01:26:20;;;;;;;25.87;19.23;;;;;;;3.27;83.13;96227.59;5026611;28;20969;-79
2023/02/14 01:28:47;;;;;;;34.27;20.40;;;;;;;3.32;81.50;96217.06;5035489;28;20933;-79
2023/02/14 01:31:16;;;;;;;36.10;20.47;;;;;;;3.32;81.71;96211.88;4984447;28;20948;-79
2023/02/14 01:33:45;;;;;;;23.87;17.60;;;;;;;3.32;81.39;96211.88;5035706;28;20500;-79
2023/02/14 01:36:16;;;;;;;36.90;20.70;;;;;;;3.28;81.00;96208.53;5035436;28;20930;-79
2023/02/14 01:38:43;;;;;;;34.83;20.80;;;;;;;3.40;81.02;96215.03;5035446;28;20499;-79
2023/02/14 01:41:10;;;;;;;31.23;18.17;;;;;;;3.41;80.29;96208.94;5035389;28;20437;-79
2023/02/14 01:44:04;;;;;;;30.47;20.80;;;;;;;3.39;80.36;96197.78;5035346;28;20500;-78
2023/02/14 01:46:32;;;;;;;40.60;21.37;;;;;;;3.46;80.63;96195.78;4974131;28;20834;-78
2023/02/14 01:49:03;;;;;;;38.73;20.43;;;;;;;3.50;80.67;96193.06;4974112;28;20484;-79
2023/02/14 01:51:32;;;;;;;33.67;19.67;;;;;;;3.41;79.91;96183.84;4973775;28;20519;-79
2023/02/14 01:54:00;;;;;;;40.70;22.50;;;;;;;3.47;79.68;96189.72;4974196;28;20452;-79
2023/02/14 01:56:31;;;;;;;29.80;18.70;;;;;;;3.46;79.98;96181.06;4973946;28;20488;-80
2023/02/14 01:59:00;;;;;;;29.03;19.77;;;;;;;3.43;79.54;96176.84;4973914;28;20987;-79
2023/02/14 02:01:30;;;;;;;27.70;18.17;;;;;;;3.39;79.57;96177.00;4973875;28;20441;-79
2023/02/14 02:04:01;;;;;;;33.63;20.27;;;;;;;3.33;79.47;96170.31;4973785;28;20492;-79
2023/02/14 02:06:31;;;;;;;29.13;19.60;;;;;;;3.32;79.86;96166.03;4973830;28;20478;-78
2023/02/14 02:09:06;;;;;;;30.47;19.63;;;;;;;3.36;79.91;96177.13;4973674;28;20444;-79
2023/02/14 02:11:34;;;;;;;35.07;21.17;;;;;;;3.41;81.38;96173.47;4973996;28;20464;-79
2023/02/14 02:14:00;;;;;;;28.20;18.97;;;;;;;3.38;79.94;96177.91;4973389;28;20491;-79
2023/02/14 02:16:59;;;;;;;35.13;20.70;;;;;;;3.33;80.36;96180.69;4941321;28;20453;-79
2023/02/14 02:20:02;;;;;;;30.13;18.33;;;;;;;3.31;80.07;96176.44;4973555;28;20507;-78
2023/02/14 02:22:53;;;;;;;33.23;19.97;;;;;;;3.27;80.21;96180.06;4988682;28;20507;-78
2023/02/14 02:25:36;;;;;;;41.97;23.10;;;;;;;3.24;80.80;96180.19;5034916;28;20477;-79
2023/02/14 02:28:32;;;;;;;33.33;19.77;;;;;;;3.26;80.84;96168.00;5033931;28;20458;-79
2023/02/14 02:31:34;;;;;;;30.73;19.93;;;;;;;3.24;80.99;96151.66;5034569;28;20527;-79
2023/02/14 02:34:22;;;;;;;29.97;19.17;;;;;;;3.22;80.51;96149.09;5034447;28;20452;-79
2023/02/14 02:37:07;;;;;;;33.00;20.13;;;;;;;3.23;81.15;96134.38;5034108;28;20485;-79
2023/02/14 02:39:50;;;;;;;35.73;20.07;;;;;;;3.23;80.48;96142.16;5034012;28;20503;-78
2023/02/14 02:42:27;;;;;;;36.83;20.33;;;;;;;3.26;80.54;96134.28;5034444;28;20941;-79
2023/02/14 02:45:04;;;;;;;25.37;16.43;;;;;;;3.24;80.39;96128.31;5034252;28;20449;-78
2023/02/14 02:47:37;;;;;;;30.43;18.80;;;;;;;3.30;80.07;96133.25;5034273;28;20442;-79
2023/02/14 02:53:10;;;;;;;36.30;21.77;;;;;;;3.32;80.87;96121.94;5034181;28;20442;-79
2023/02/14 02:58:43;;;;;;;32.30;19.43;;;;;;;3.35;79.97;96132.19;4972943;28;20482;-79
2023/02/14 03:01:14;;;;;;;27.53;18.27;;;;;;;3.34;80.18;96125.31;4972962;28;20445;-79
2023/02/14 03:06:30;;;;;;;28.10;16.70;;;;;;;3.32;80.08;96142.69;4972789;28;20925;-79
2023/02/14 03:09:09;;;;;;;28.73;18.20;;;;;;;3.33;79.85;96135.75;4972575;28;20527;-79
2023/02/14 03:11:41;;;;;;;29.63;18.17;;;;;;;3.36;80.39;96133.03;4971381;28;20449;-78
2023/02/14 03:14:19;;;;;;;25.93;15.53;;;;;;;3.37;79.27;96134.72;4972500;28;20508;-79
2023/02/14 03:16:59;;;;;;;27.40;16.60;;;;;;;3.32;79.44;96142.69;4927016;28;20444;-79
2023/02/14 03:22:39;;;;;;;33.30;19.30;;;;;;;3.30;79.82;96138.44;4972503;28;20496;-79
2023/02/14 03:25:17;;;;;;;34.00;17.47;;;;;;;3.24;80.65;96130.91;4971846;28;20445;-78
2023/02/14 03:27:49;;;;;;;25.23;16.00;;;;;;;3.23;80.13;96118.81;4972198;28;20465;-79
2023/02/14 03:30:27;;;;;;;30.87;16.63;;;;;;;3.23;80.09;96117.09;4972224;28;20507;-78
2023/02/14 03:33:01;;;;;;;33.23;19.10;;;;;;;3.23;81.38;96119.69;5004679;28;20512;-78
2023/02/14 03:35:36;;;;;;;25.30;16.60;;;;;;;3.25;81.45;96104.06;5033292;28;20515;-78
2023/02/14 03:38:08;;;;;;;27.37;17.73;;;;;;;3.24;80.26;96108.41;4997184;28;20528;-78
2023/02/14 03:40:41;;;;;;;27.67;17.67;;;;;;;3.25;80.16;96117.88;5033585;28;20447;-79
2023/02/14 03:43:13;;;;;;;31.43;17.80;;;;;;;3.22;81.67;96110.19;5033220;28;20446;-79
2023/02/14 03:45:44;;;;;;;29.03;17.83;;;;;;;3.21;80.61;96118.03;5032885;28;20488;-79
2023/02/14 03:48:14;;;;;;;30.03;16.67;;;;;;;3.23;79.56;96111.91;5032961;28;20453;-79
2023/02/14 03:50:44;;;;;;;28.77;17.87;;;;;;;3.27;80.12;96117.81;5032967;28;20450;-79
2023/02/14 03:53:12;;;;;;;26.60;15.83;;;;;;;3.34;79.90;96108.91;5032999;28;20500;-79
2023/02/14 03:55:46;;;;;;;26.80;15.80;;;;;;;3.32;79.49;96110.69;5033108;28;20444;-79
2023/02/14 03:58:19;;;;;;;27.30;18.13;;;;;;;3.32;79.79;96106.34;5032761;28;20494;-79
2023/02/14 04:00:48;;;;;;;30.33;16.80;;;;;;;3.24;79.38;96097.19;5032644;28;20465;-79
2023/02/14 04:03:16;;;;;;;27.80;16.40;;;;;;;3.18;79.29;96092.19;5032497;28;20878;-79
2023/02/14 04:05:51;;;;;;;23.93;14.33;;;;;;;3.14;80.00;96080.25;5032876;28;20450;-79
2023/02/14 04:08:22;;;;;;;30.23;16.90;;;;;;;3.09;80.02;96081.25;5032766;28;20446;-79
2023/02/14 04:10:50;;;;;;;28.53;18.37;;;;;;;3.11;79.80;96074.28;5032543;28;20504;-78
2023/02/14 04:13:17;;;;;;;31.53;16.87;;;;;;;3.10;79.92;96079.50;5033127;28;20442;-78
2023/02/14 04:15:44;;;;;;;22.50;14.80;;;;;;;3.08;80.22;96076.13;5033472;28;20504;-81
2023/02/14 04:20:55;;;;;;;22.00;16.27;;;;;;;3.01;80.26;96092.81;5033112;28;20434;-82
2023/02/14 04:23:22;;;;;;;23.03;16.20;;;;;;;3.07;79.61;96087.41;5033195;28;20496;-79
2023/02/14 04:25:50;;;;;;;33.80;17.60;;;;;;;3.07;80.54;96093.44;5032942;28;20477;-78
2023/02/14 04:28:17;;;;;;;33.67;18.17;;;;;;;3.04;80.35;96090.13;5033352;28;20786;-78
2023/02/14 04:30:43;;;;;;;38.57;20.97;;;;;;;3.02;80.17;96076.38;5052118;28;20445;-78
2023/02/14 04:33:10;;;;;;;47.87;27.33;;;;;;;3.01;79.60;96072.91;5052835;28;20457;-78
2023/02/14 04:35:37;;;;;;;43.50;24.70;;;;;;;2.99;80.11;96082.50;5053078;28;20783;-78
2023/02/14 04:38:04;;;;;;;27.37;16.67;;;;;;;2.96;80.73;96087.81;5017565;28;20477;-79
2023/02/14 04:40:31;;;;;;;35.53;17.37;;;;;;;2.92;80.17;96082.78;5052924;28;20449;-79
2023/02/14 04:43:00;;;;;;;38.60;21.50;;;;;;;3.00;80.47;96079.00;5052923;28;20453;-79
2023/02/14 04:45:27;;;;;;;28.03;16.23;;;;;;;2.92;79.98;96068.09;5052937;28;20932;-79
2023/02/14 04:47:54;;;;;;;27.13;18.07;;;;;;;2.89;80.02;96059.53;5052765;28;20495;-78
2023/02/14 04:50:22;;;;;;;29.27;16.37;;;;;;;2.90;80.59;96061.25;5052660;28;20511;-78
2023/02/14 04:52:49;;;;;;;25.40;14.83;;;;;;;2.92;80.15;96060.31;5052460;28;20449;-79
2023/02/14 04:55:15;;;;;;;37.53;17.97;;;;;;;2.95;79.60;96055.00;5052953;28;20446;-79
2023/02/14 04:57:42;;;;;;;21.50;15.13;;;;;;;2.94;79.56;96050.72;5052438;28;20493;-79
2023/02/14 05:00:12;;;;;;;28.23;18.77;;;;;;;3.05;79.10;96060.69;5051237;28;20436;-79
2023/02/14 05:02:39;;;;;;;22.57;17.27;;;;;;;3.08;78.48;96061.41;5052754;28;20203;-77
2023/02/14 05:05:06;;;;;;;28.57;15.73;;;;;;;3.05;78.29;96069.31;5001365;28;20453;-79
2023/02/14 05:07:33;;;;;;;24.47;14.17;;;;;;;3.03;79.29;96073.72;5052590;28;20529;-79
2023/02/14 05:10:00;;;;;;;23.60;16.00;;;;;;;2.99;78.88;96069.53;5052523;28;20453;-80
2023/02/14 05:12:26;;;;;;;25.80;16.07;;;;;;;3.06;79.13;96068.41;5052634;28;20445;-80
2023/02/14 05:14:56;;;;;;;27.53;16.87;;;;;;;3.03;78.40;96063.34;5052284;28;20449;-79
2023/02/14 05:17:24;;;;;;;24.43;15.77;;;;;;;2.99;78.91;96060.91;5052471;28;20477;-80
2023/02/14 05:19:51;;;;;;;22.67;14.00;;;;;;;2.92;79.36;96056.88;5052543;28;20452;-80
2023/02/14 05:22:18;;;;;;;25.40;15.63;;;;;;;2.93;78.86;96066.34;5052307;28;20461;-79
2023/02/14 05:24:45;;;;;;;24.80;14.43;;;;;;;2.88;79.73;96058.69;5052262;28;20511;-78
2023/02/14 05:27:11;;;;;;;24.33;15.37;;;;;;;2.91;80.63;96044.81;4994526;28;20473;-78
2023/02/14 05:29:38;;;;;;;34.93;17.70;;;;;;;2.89;79.60;96039.69;5013140;28;20451;-78
2023/02/14 05:32:05;;;;;;;23.10;15.53;;;;;;;2.89;79.65;96050.03;5020432;28;20981;-79
2023/02/14 05:34:33;;;;;;;28.13;16.23;;;;;;;2.93;79.38;96062.00;5021858;28;20496;-79
2023/02/14 05:37:01;;;;;;;21.60;14.90;;;;;;;2.93;78.94;96056.81;5023374;28;20450;-79
2023/02/14 05:39:28;;;;;;;27.43;16.00;;;;;;;2.96;79.86;96048.06;5010955;28;20483;-79
2023/02/14 05:41:55;;;;;;;25.50;16.40;;;;;;;3.12;79.41;96059.56;4968103;28;20449;-80
2023/02/14 05:44:22;;;;;;;25.57;14.30;;;;;;;3.36;79.09;96050.00;4981344;28;20451;-82
2023/02/14 05:46:48;;;;;;;24.27;13.83;;;;;;;3.55;77.11;96051.00;4976225;28;20442;-83
2023/02/14 05:49:15;;;;;;;23.10;13.87;;;;;;;3.60;76.54;96054.28;5023787;28;20516;-81
2023/02/14 05:51:43;;;;;;;23.20;13.40;;;;;;;3.57;78.09;96038.81;5018939;28;20462;-80
2023/02/14 05:54:10;;;;;;;27.17;15.10;;;;;;;3.49;77.29;96043.47;5010849;28;20443;-79
2023/02/14 05:56:37;;;;;;;27.80;16.70;;;;;;;3.51;79.28;96038.22;5011187;28;20439;-81
2023/02/14 05:59:04;;;;;;;32.47;18.13;;;;;;;3.44;78.20;96050.56;5017129;28;20533;-86
2023/02/14 06:01:31;;;;;;;25.73;17.43;;;;;;;3.48;78.42;96044.38;5015702;28;20451;-84
2023/02/14 06:03:58;;;;;;;23.27;14.30;;;;;;;3.43;79.19;96049.72;5018962;28;20443;-82
2023/02/14 06:06:25;;;;;;;28.47;15.60;;;;;;;3.36;78.32;96045.66;5026470;28;20445;-84
2023/02/14 06:08:53;;;;;;;26.00;15.83;;;;;;;3.33;80.33;96057.91;4980707;28;20501;-85
2023/02/14 06:11:20;;;;;;;24.80;15.33;;;;;;;3.26;78.71;96049.53;5016570;28;20529;-82
2023/02/14 06:13:46;;;;;;;26.83;15.60;;;;;;;3.28;81.92;96057.25;5031349;28;20873;-79
2023/02/14 06:16:13;;;;;;;23.07;15.80;;;;;;;3.27;79.75;96065.94;5035197;28;20957;-78
2023/02/14 06:18:40;;;;;;;31.60;17.40;;;;;;;3.27;81.07;96060.75;5024433;28;20491;-78
2023/02/14 06:21:06;;;;;;;25.43;16.47;;;;;;;3.33;82.95;96061.34;5019498;28;20442;-79
2023/02/14 06:23:33;;;;;;;27.97;16.60;;;;;;;3.41;81.86;96053.28;5034292;28;20540;-78
2023/02/14 06:26:02;;;;;;;30.00;16.97;;;;;;;3.46;80.97;96060.88;5042725;28;20538;-80
2023/02/14 06:28:29;;;;;;;27.40;17.03;;;;;;;3.47;81.33;96058.25;5054807;28;20485;-79
2023/02/14 06:30:56;;;;;;;29.23;15.30;;;;;;;3.46;80.00;96061.72;5049180;28;21010;-79
2023/02/14 06:33:22;;;;;;;29.43;21.90;;;;;;;3.55;79.87;96053.59;5050278;28;20473;-79
2023/02/14 06:35:49;;;;;;;30.00;19.33;;;;;;;3.60;78.00;96069.00;5000695;28;20434;-80
2023/02/14 06:38:18;;;;;;;32.37;20.30;;;;;;;3.71;82.01;96059.03;5051371;28;20480;-78
2023/02/14 06:40:45;;;;;;;30.57;18.70;;;;;;;3.76;78.04;96061.44;5037038;28;20529;-80
2023/02/14 06:43:13;;;;;;;25.33;17.23;;;;;;;3.84;82.63;96055.06;5034361;28;20925;-80
2023/02/14 06:45:42;;;;;;;29.87;17.70;;;;;;;3.86;81.11;96055.84;5035842;28;20504;-78
2023/02/14 06:48:09;;;;;;;25.17;15.97;;;;;;;3.84;78.41;96064.59;5036535;28;20929;-80
2023/02/14 06:50:36;;;;;;;25.70;17.77;;;;;;;3.89;78.55;96065.25;5034401;28;20450;-79
2023/02/14 06:53:03;;;;;;;24.90;16.60;;;;;;;3.85;80.13;96056.75;5036381;28;20849;-79
2023/02/14 06:55:29;;;;;;;21.17;13.60;;;;;;;3.81;78.02;96049.16;5033983;28;20521;-79
2023/02/14 06:57:56;;;;;;;28.87;19.67;;;;;;;3.90;79.81;96056.56;5033990;28;20449;-79
2023/02/14 07:00:24;;;;;;;31.77;20.17;;;;;;;3.98;81.08;96046.72;4982482;28;20521;-79
2023/02/14 07:02:51;;;;;;;34.23;18.73;;;;;;;4.05;78.92;96055.97;4982763;28;20496;-80
2023/02/14 07:05:18;;;;;;;30.00;17.67;;;;;;;4.14;80.87;96060.78;5035272;28;20445;-79
2023/02/14 07:07:45;;;;;;;22.10;15.00;;;;;;;4.22;79.57;96047.47;5033977;28;20446;-79
2023/02/14 07:10:12;;;;;;;25.33;16.53;;;;;;;4.27;77.75;96056.75;5034109;28;20829;-79
2023/02/14 07:12:39;;;;;;;18.83;14.90;;;;;;;4.27;78.50;96030.78;5033533;28;20442;-80
2023/02/14 07:15:07;;;;;;;25.37;15.57;;;;;;;4.30;77.14;96033.22;5033790;28;20866;-79
2023/02/14 07:17:35;;;;;;;25.10;18.23;;;;;;;4.30;76.86;96042.78;5034594;28;20445;-79
2023/02/14 07:20:02;;;;;;;27.43;16.50;;;;;;;4.30;78.63;96048.81;5033946;28;20532;-80
2023/02/14 07:22:28;;;;;;;23.20;16.10;;;;;;;4.34;78.53;96052.16;4999082;28;20512;-79
2023/02/14 07:24:55;;;;;;;26.60;15.47;;;;;;;4.34;78.51;96046.97;4998306;28;20449;-80
2023/02/14 07:27:22;;;;;;;30.17;17.93;;;;;;;4.30;77.80;96054.03;4998323;28;20536;-79
2023/02/14 07:29:49;;;;;;;28.47;18.60;;;;;;;4.29;79.98;96057.53;5033840;28;20454;-79
2023/02/14 07:32:15;;;;;;;28.33;17.70;;;;;;;4.31;79.90;96055.72;4999096;28;20500;-80
2023/02/14 07:34:44;;;;;;;27.13;17.53;;;;;;;4.35;81.87;96052.09;5033538;28;20449;-81
2023/02/14 07:37:10;;;;;;;27.70;16.07;;;;;;;4.33;81.66;96051.28;5036395;28;20446;-80
2023/02/14 07:39:37;;;;;;;34.23;21.50;;;;;;;4.22;80.82;96058.69;5039658;28;20516;-80
2023/02/14 07:42:04;;;;;;;41.00;24.17;;;;;;;4.25;80.23;96053.38;5033282;28;20890;-79
2023/02/14 07:44:31;;;;;;;30.30;19.60;;;;;;;4.28;81.41;96057.59;5032968;28;20446;-80
2023/02/14 07:46:57;;;;;;;32.67;20.27;;;;;;;4.39;82.99;96058.00;5033173;28;20512;-80
2023/02/14 07:49:24;;;;;;;25.10;17.23;;;;;;;4.48;82.11;96068.00;5032909;28;20995;-80
2023/02/14 07:51:52;;;;;;;26.10;15.83;;;;;;;4.45;84.57;96064.69;5033184;28;20746;-81
2023/02/14 07:54:19;;;;;;;26.23;15.43;;;;;;;4.35;83.02;96072.88;4997929;28;20445;-80
2023/02/14 07:56:46;;;;;;;26.60;16.40;;;;;;;4.36;83.89;96063.34;5032974;28;20964;-81
2023/02/14 07:59:12;;;;;;;25.87;15.83;;;;;;;4.26;83.24;96075.00;5033097;28;20495;-80
2023/02/14 08:01:39;;;;;;;26.93;14.67;;;;;;;4.24;84.73;96077.66;5032990;28;20508;-80
2023/02/14 08:04:06;;;;;;;28.30;16.10;;;;;;;4.25;86.86;96081.94;5032906;28;20520;-80
2023/02/14 08:06:33;;;;;;;33.37;17.40;;;;;;;4.21;85.44;96074.34;5032467;28;20442;-80
2023/02/14 08:09:01;;;;;;;32.73;17.73;;;;;;;4.16;86.51;96084.09;5032995;28;20449;-80
2023/02/14 08:14:12;;;;;;;25.03;16.30;;;;;;;4.16;87.15;96082.34;5032843;28;20437;-81
2023/02/14 08:16:39;;;;;;;26.37;16.40;;;;;;;4.19;87.89;96073.56;5032672;28;20446;-80
2023/02/14 08:19:05;;;;;;;29.33;17.73;;;;;;;4.12;86.68;96083.38;5032337;28;20532;-80
2023/02/14 08:21:32;;;;;;;28.37;18.33;;;;;;;4.04;86.14;96070.66;5032523;28;20503;-80
2023/02/14 08:24:00;;;;;;;30.57;18.70;;;;;;;4.18;90.33;96083.13;5032378;28;20457;-79
2023/02/14 08:26:28;;;;;;;42.80;18.50;;;;;;;4.18;87.68;96088.31;5032388;28;20976;-80
2023/02/14 08:28:55;;;;;;;37.47;19.10;;;;;;;4.09;86.62;96091.28;4981462;28;20441;-80
2023/02/14 08:31:24;;;;;;;37.97;19.97;;;;;;;4.08;87.34;96099.97;5032365;28;20438;-80
2023/02/14 08:33:52;;;;;;;35.53;19.30;;;;;;;4.01;87.47;96086.38;5032471;28;20442;-79
2023/02/14 08:36:19;;;;;;;31.10;20.50;;;;;;;3.99;87.79;96089.94;5033088;28;20442;-80
2023/02/14 08:38:47;;;;;;;28.10;17.50;;;;;;;4.03;87.55;96081.13;5032359;28;20535;-80
2023/02/14 08:41:16;;;;;;;20.60;13.10;;;;;;;4.13;88.39;96077.25;5032459;28;20533;-80
2023/02/14 08:43:43;;;;;;;28.57;14.70;;;;;;;4.16;85.79;96090.13;5032117;28;20446;-80
2023/02/14 08:46:11;;;;;;;33.40;16.63;;;;;;;4.25;86.46;96092.34;5032428;28;20442;-80
2023/02/14 08:48:38;;;;;;;25.63;15.20;;;;;;;4.22;85.75;96104.63;5032123;28;20465;-80
2023/02/14 08:51:06;;;;;;;24.97;15.90;;;;;;;4.18;85.48;96097.84;5032246;28;20516;-80
2023/02/14 08:53:33;;;;;;;21.30;12.80;;;;;;;4.13;86.25;96102.41;5032121;28;20921;-81
2023/02/14 08:56:02;;;;;;;26.00;15.20;;;;;;;4.16;88.42;96100.50;5032307;28;20446;-79
2023/02/14 08:58:31;;;;;;;19.60;14.00;;;;;;;4.07;87.84;96100.91;5031938;28;20801;-80
2023/02/14 09:00:58;;;;;;;22.97;15.43;;;;;;;4.11;88.73;96107.66;4997072;28;20500;-81
2023/02/14 09:03:25;;;;;;;22.43;15.70;;;;;;;4.11;87.76;96099.84;4997007;28;20454;-80
2023/02/14 09:05:51;;;;;;;43.10;20.20;;;;;;;4.11;87.80;96110.25;5031831;28;20446;-81
2023/02/14 09:08:18;;;;;;;33.57;13.93;;;;;;;4.06;89.04;96088.81;5032045;28;20450;-81
2023/02/14 09:10:45;;;;;;;23.20;15.10;;;;;;;4.08;88.51;96092.19;5031901;28;20465;-80
2023/02/14 09:13:11;;;;;;;21.37;14.30;;;;;;;4.06;89.19;96091.41;5031940;28;20488;-81
2023/02/14 09:15:40;;;;;;;30.17;16.83;;;;;;;4.04;88.81;96093.19;5032036;28;20499;-80
2023/02/14 09:18:06;;;;;;;26.93;16.83;;;;;;;4.08;89.77;96092.19;5031949;28;20448;-80
2023/02/14 09:20:33;;;;;;;35.00;18.03;;;;;;;4.07;88.93;96074.91;5031762;28;20490;-81
2023/02/14 09:23:00;;;;;;;21.67;14.10;;;;;;;4.23;90.57;96075.13;5031836;28;20442;-81
2023/02/14 09:25:27;;;;;;;30.00;18.00;;;;;;;4.25;88.24;96071.56;5031539;28;20477;-80
2023/02/14 09:27:53;;;;;;;23.97;15.37;;;;;;;4.24;87.75;96067.25;5031704;28;20952;-80
2023/02/14 09:30:20;;;;;;;24.30;17.20;;;;;;;4.24;89.05;96072.47;5031873;28;20446;-80
2023/02/14 09:32:50;;;;;;;25.60;16.33;;;;;;;4.30;88.70;96071.34;5031766;28;20789;-80
2023/02/14 09:38:17;;;;;;;32.63;17.40;;;;;;;4.32;91.71;96083.38;5034696;28;20429;-80
2023/02/14 09:40:44;;;;;;;34.30;22.13;;;;;;;4.25;87.54;96079.34;5035256;28;20545;-80
2023/02/14 09:43:22;;;;;;;29.47;16.97;;;;;;;4.24;87.56;96071.63;5000349;28;20448;-80
2023/02/14 09:45:52;;;;;;;23.87;14.20;;;;;;;4.26;87.92;96069.81;5035271;28;20452;-80
2023/02/14 09:48:29;;;;;;;23.80;14.87;;;;;;;4.33;86.68;96072.06;5035326;28;20507;-80
2023/02/14 09:50:59;;;;;;;30.87;17.50;;;;;;;4.31;86.76;96067.84;5035256;28;20511;-80
2023/02/14 09:53:28;;;;;;;32.37;16.20;;;;;;;4.33;85.48;96066.88;5035278;28;20438;-81
2023/02/14 09:56:01;;;;;;;26.63;17.20;;;;;;;4.35;85.06;96069.44;5035027;28;20975;-80
2023/02/14 09:58:34;;;;;;;32.37;15.47;;;;;;;4.22;86.47;96063.88;5035174;28;21003;-81
2023/02/14 10:01:13;;;;;;;34.90;16.53;;;;;;;4.23;85.95;96055.19;5034879;28;20535;-80
2023/02/14 10:04:00;;;;;;;24.10;15.70;;;;;;;4.20;85.05;96052.72;5035171;28;20445;-81
2023/02/14 10:06:46;;;;;;;28.90;16.07;;;;;;;4.27;85.70;96063.69;5035032;28;20446;-80
2023/02/14 10:09:25;;;;;;;27.40;14.37;;;;;;;4.25;84.91;96057.72;5034861;28;20830;-79
2023/02/14 10:11:53;;;;;;;29.23;14.57;;;;;;;4.28;84.40;96050.63;5035141;28;20446;-80
2023/02/14 10:14:24;;;;;;;31.27;16.20;;;;;;;4.37;89.87;96043.41;5034825;28;20832;-79
2023/02/14 10:16:56;;;;;;;30.63;17.17;;;;;;;4.33;85.74;96055.63;5035753;28;20442;-81
2023/02/14 10:19:28;;;;;;;24.60;13.50;;;;;;;4.33;84.52;96040.06;5035759;28;20486;-80
2023/02/14 10:21:59;;;;;;;26.23;15.10;;;;;;;4.39;83.87;96045.00;5034527;28;20449;-80
2023/02/14 10:24:31;;;;;;;30.40;14.47;;;;;;;4.50;84.58;96042.78;5034594;28;20987;-79
2023/02/14 10:27:03;;;;;;;24.07;14.40;;;;;;;4.66;85.01;96048.19;5034439;28;20476;-79
2023/02/14 10:29:30;;;;;;;29.40;16.83;;;;;;;4.74;85.66;96040.91;4999692;28;20512;-80
2023/02/14 10:31:59;;;;;;;29.83;16.47;;;;;;;4.69;83.18;96036.81;5034523;28;20449;-80
2023/02/14 10:34:39;;;;;;;30.07;16.17;;;;;;;4.65;83.11;96041.31;5034305;28;20452;-80
2023/02/14 10:37:32;;;;;;;28.43;18.83;;;;;;;4.62;83.86;96042.25;5034640;28;20449;-82
2023/02/14 10:40:33;;;;;;;36.90;18.40;;;;;;;4.55;82.61;96040.00;5034175;28;20485;-80
2023/02/14 10:43:09;;;;;;;26.83;14.53;;;;;;;4.50;83.81;96050.59;5033636;28;20811;-80
2023/02/14 10:45:41;;;;;;;26.10;14.97;;;;;;;4.45;83.89;96036.09;5034649;28;20450;-83
2023/02/14 10:48:21;;;;;;;28.53;13.47;;;;;;;4.42;85.01;96042.28;5033940;28;20446;-80
2023/02/14 10:50:56;;;;;;;21.40;14.30;;;;;;;4.41;84.87;96039.75;5034138;28;20897;-80
2023/02/14 10:53:32;;;;;;;20.63;13.80;;;;;;;4.37;83.47;96044.25;5034107;28;20917;-81
2023/02/14 10:56:04;;;;;;;20.20;13.03;;;;;;;4.29;82.83;96034.16;5034145;28;20457;-80
2023/02/14 10:58:36;;;;;;;25.50;14.17;;;;;;;4.28;83.89;96035.06;5034008;28;20442;-79
2023/02/14 11:01:08;;;;;;;20.03;14.23;;;;;;;4.30;83.12;96030.63;5015321;28;20528;-79
2023/02/14 11:03:37;;;;;;;17.03;12.33;;;;;;;4.23;82.28;96026.63;5033775;28;20500;-81
2023/02/14 11:06:05;;;;;;;17.60;10.57;;;;;;;4.23;83.83;96037.00;5033756;28;20472;-81
2023/02/14 11:08:34;;;;;;;22.17;12.83;;;;;;;4.22;84.69;96037.06;5033913;28;20435;-80
2023/02/14 11:11:10;;;;;;;17.47;11.47;;;;;;;4.37;85.88;96040.78;5033650;28;20457;-81
2023/02/14 11:13:39;;;;;;;15.00;11.07;;;;;;;4.16;83.37;96026.94;5033785;28;20445;-83
2023/02/14 11:16:08;;;;;;;17.80;12.33;;;;;;;4.06;84.67;96023.03;5033686;28;20450;-80
2023/02/14 11:18:38;;;;;;;26.60;14.80;;;;;;;4.01;83.94;96015.41;5033648;28;20450;-79
2023/02/14 11:21:09;;;;;;;17.33;11.60;;;;;;;4.12;83.87;96025.38;5033638;28;20984;-80
2023/02/14 11:23:40;;;;;;;18.97;12.83;;;;;;;4.15;85.10;96023.50;5033321;28;20461;-78
2023/02/14 11:26:16;;;;;;;24.87;15.73;;;;;;;4.29;84.63;96034.16;5033557;28;20827;-81
2023/02/14 11:28:52;;;;;;;23.13;14.70;;;;;;;4.32;83.71;96031.41;5033163;28;20457;-80
2023/02/14 11:31:28;;;;;;;24.43;15.43;;;;;;;4.29;82.81;96015.97;5033570;28;20500;-82
2023/02/14 11:33:56;;;;;;;13.97;10.57;;;;;;;4.21;82.19;96010.25;5033746;28;21020;-81
2023/02/14 11:36:25;;;;;;;21.30;12.40;;;;;;;4.22;81.68;96019.72;5033492;28;20447;-79
2023/02/14 11:38:58;;;;;;;27.90;14.33;;;;;;;4.18;82.95;96012.97;5033307;28;20454;-79
2023/02/14 11:41:24;;;;;;;23.33;15.37;;;;;;;4.19;83.05;96006.88;5033261;28;20482;-79
2023/02/14 11:43:52;;;;;;;23.77;15.23;;;;;;;4.15;82.67;96000.13;5033235;28;20512;-80
2023/02/14 11:46:27;;;;;;;19.10;11.07;;;;;;;4.16;81.13;96014.78;5033375;28;20570;-79
2023/02/14 11:48:57;;;;;;;19.80;13.37;;;;;;;4.13;81.09;95983.75;4981864;28;20442;-81
2023/02/14 11:51:31;;;;;;;20.90;13.53;;;;;;;4.25;81.41;96001.41;5032886;28;20983;-79
2023/02/14 11:54:03;;;;;;;17.70;12.27;;;;;;;4.32;80.15;95992.44;5034303;28;20534;-80
2023/02/14 11:56:46;;;;;;;21.40;15.57;;;;;;;4.40;79.04;95996.50;5033208;28;20802;-80
2023/02/14 11:59:24;;;;;;;35.33;15.47;;;;;;;4.42;79.28;95992.06;5032343;28;20553;-81